Terminal Aerodrome Forecast
Issued by NWS

Home | Current Version | Previous Version | Graphics & Text | Print | Product List | Glossary On
Versions: 1 2 3 4 5 6 7 8 9 10 11 12 13 14 15 16 17 18 19 20 21 22 23 24
000
FTUS43 KABR 011138
TAFMBG
TAF
KMBG 011138Z 0112/0212 14006KT 6SM BR OVC035
      TEMPO 0112/0113 1SM BR FEW035
     FM011300 10008KT P6SM OVC035
     FM012200 05007KT P6SM VCSH OVC050
     FM020600 36006KT P6SM OVC150=

USA.gov is the U.S. government's official web portal to all federal, state and local government web resources and services.